createdAt,value
2019-02-24T00:00:31.895Z,103353.32
2019-02-24T00:01:43.262Z,103356.72
2019-02-24T00:02:50.239Z,103360.59
2019-02-24T00:03:56.931Z,103360.45
2019-02-24T00:05:04.234Z,103357.47
2019-02-24T00:06:10.938Z,103356.98
2019-02-24T00:07:18.010Z,103355.13
2019-02-24T00:08:24.968Z,103353.86
2019-02-24T00:09:32.672Z,103357.64
2019-02-24T00:10:39.429Z,103353.11
2019-02-24T00:11:46.294Z,103353.49
2019-02-24T00:12:53.006Z,103354.73
2019-02-24T00:13:59.694Z,103354.25
2019-02-24T00:15:06.662Z,103349.86
2019-02-24T00:16:13.378Z,103352.53
2019-02-24T00:17:20.068Z,103353.20
2019-02-24T00:18:27.313Z,103346.94
2019-02-24T00:19:34.000Z,103348.47
2019-02-24T00:20:40.707Z,103352.61
2019-02-24T00:21:47.789Z,103342.02
2019-02-24T00:22:54.793Z,103343.73
2019-02-24T00:24:02.171Z,103339.66
2019-02-24T00:25:08.866Z,103348.67
2019-02-24T00:26:15.914Z,103346.48
2019-02-24T00:27:22.718Z,103340.00
2019-02-24T00:28:30.298Z,103336.32
2019-02-24T00:29:36.993Z,103336.14
2019-02-24T00:30:43.998Z,103336.86
2019-02-24T00:31:50.750Z,103333.46
2019-02-24T00:32:57.924Z,103327.53
2019-02-24T00:34:04.957Z,103334.39
2019-02-24T00:35:11.690Z,103334.95
2019-02-24T00:36:18.384Z,103335.88
2019-02-24T00:37:25.915Z,103334.60
2019-02-24T00:38:33.070Z,103339.34
2019-02-24T00:39:39.731Z,103335.19
2019-02-24T00:40:46.448Z,103331.52
2019-02-24T00:41:53.082Z,103330.59
2019-02-24T00:43:00.192Z,103332.92
2019-02-24T00:44:07.407Z,103335.94
2019-02-24T00:45:14.033Z,103332.34
2019-02-24T00:46:21.034Z,103329.31
2019-02-24T00:47:27.720Z,103334.13
2019-02-24T00:48:35.271Z,103334.46
2019-02-24T00:49:41.950Z,103331.14
2019-02-24T00:50:48.610Z,103333.60
2019-02-24T00:51:55.748Z,103337.68
2019-02-24T00:53:03.060Z,103333.95
2019-02-24T00:54:09.762Z,103332.80
2019-02-24T00:55:16.773Z,103338.53
2019-02-24T00:56:23.458Z,103333.02
2019-02-24T00:57:30.548Z,103341.67
2019-02-24T00:58:37.606Z,103343.28
2019-02-24T00:59:44.298Z,103342.69
2019-02-24T01:00:51.371Z,103339.92
2019-02-24T01:01:59.855Z,103341.47
2019-02-24T01:03:07.262Z,103343.00
2019-02-24T01:04:13.954Z,103338.41
2019-02-24T01:05:20.855Z,103336.48
2019-02-24T01:06:27.572Z,103337.27
2019-02-24T01:07:34.291Z,103339.02
2019-02-24T01:08:41.710Z,103340.77
2019-02-24T01:09:48.356Z,103339.87
2019-02-24T01:10:55.707Z,103337.74
2019-02-24T01:12:02.417Z,103345.35
2019-02-24T01:13:09.133Z,103340.20
2019-02-24T01:14:16.085Z,103337.27
2019-02-24T01:15:23.068Z,103337.81
2019-02-24T01:16:30.440Z,103339.76
2019-02-24T01:17:37.864Z,103338.34
2019-02-24T01:18:44.578Z,103347.82
2019-02-24T01:19:51.881Z,103346.00
2019-02-24T01:20:58.546Z,103349.46
2019-02-24T01:22:05.282Z,103342.00
2019-02-24T01:23:12.366Z,103346.36
2019-02-24T01:24:19.451Z,103341.95
2019-02-24T01:25:26.792Z,103340.62
2019-02-24T01:26:33.889Z,103339.61
2019-02-24T01:27:41.037Z,103335.86
2019-02-24T01:28:48.018Z,103336.01
2019-02-24T01:29:54.745Z,103335.59
2019-02-24T01:31:01.421Z,103339.73
2019-02-24T01:32:08.113Z,103334.59
2019-02-24T01:33:15.319Z,103333.73
2019-02-24T01:34:22.367Z,103338.17
2019-02-24T01:35:29.336Z,103337.88
2019-02-24T01:36:36.075Z,103334.67
2019-02-24T01:37:43.084Z,103336.53
2019-02-24T01:38:50.097Z,103333.52
2019-02-24T01:39:57.124Z,103332.51
2019-02-24T01:41:03.859Z,103329.12
2019-02-24T01:42:10.909Z,103334.11
2019-02-24T01:43:18.480Z,103334.00
2019-02-24T01:44:25.176Z,103331.91
2019-02-24T01:45:31.822Z,103331.91
2019-02-24T01:46:38.517Z,103329.30
2019-02-24T01:47:45.169Z,103323.56
2019-02-24T01:48:52.225Z,103325.31
2019-02-24T01:49:59.218Z,103323.86
2019-02-24T01:51:06.591Z,103312.64
2019-02-24T01:52:13.632Z,103311.83
2019-02-24T01:53:20.313Z,103312.09
2019-02-24T01:54:27.344Z,103307.17
2019-02-24T01:55:34.390Z,103311.67
2019-02-24T01:56:41.420Z,103307.02
2019-02-24T01:57:48.165Z,103309.96
2019-02-24T01:58:54.915Z,103310.82
2019-02-24T02:00:01.594Z,103306.42
2019-02-24T02:01:08.409Z,103305.08
2019-02-24T02:02:15.112Z,103307.87
2019-02-24T02:03:22.239Z,103308.21
2019-02-24T02:04:29.177Z,103305.08
2019-02-24T02:05:35.879Z,103304.45
2019-02-24T02:06:42.570Z,103302.47
2019-02-24T02:07:49.629Z,103307.53
2019-02-24T02:08:56.287Z,103306.46
2019-02-24T02:10:03.238Z,103299.12
2019-02-24T02:11:10.118Z,103303.33
2019-02-24T02:12:17.091Z,103303.85
2019-02-24T02:13:24.081Z,103299.01
2019-02-24T02:14:30.795Z,103299.16
2019-02-24T02:15:37.467Z,103304.22
2019-02-24T02:16:44.136Z,103302.95
2019-02-24T02:17:51.227Z,103303.14
2019-02-24T02:18:58.223Z,103301.88
2019-02-24T02:20:05.416Z,103308.63
2019-02-24T02:21:12.133Z,103299.68
2019-02-24T02:22:19.097Z,103304.89
2019-02-24T02:23:25.731Z,103308.22
2019-02-24T02:24:33.093Z,103304.82
2019-02-24T02:25:40.130Z,103307.02
2019-02-24T02:26:46.801Z,103304.48
2019-02-24T02:27:53.859Z,103306.69
2019-02-24T02:29:00.870Z,103312.16
2019-02-24T02:30:09.150Z,103308.28
2019-02-24T02:31:16.528Z,103308.36
2019-02-24T02:32:23.193Z,103316.48
2019-02-24T02:33:29.896Z,103310.89
2019-02-24T02:34:37.007Z,103310.15
2019-02-24T02:35:43.688Z,103306.98
2019-02-24T02:36:51.181Z,103310.38
2019-02-24T02:37:58.243Z,103314.17
2019-02-24T02:39:05.931Z,103306.09
2019-02-24T02:40:12.841Z,103306.72
2019-02-24T02:41:19.870Z,103306.23
2019-02-24T02:42:27.400Z,103304.63
2019-02-24T02:43:35.582Z,103305.97
2019-02-24T02:44:43.003Z,103308.91
2019-02-24T02:45:50.347Z,103310.63
2019-02-24T02:46:57.028Z,103310.30
2019-02-24T02:48:03.782Z,103317.90
2019-02-24T02:49:10.461Z,103309.03
2019-02-24T02:50:17.122Z,103312.83
2019-02-24T02:51:24.134Z,103308.98
2019-02-24T02:52:31.144Z,103311.12
2019-02-24T02:53:38.064Z,103312.83
2019-02-24T02:54:44.784Z,103316.19
2019-02-24T02:55:52.133Z,103320.44
2019-02-24T02:56:59.184Z,103315.63
2019-02-24T02:58:05.914Z,103314.58
2019-02-24T02:59:13.338Z,103312.09
2019-02-24T03:00:36.798Z,103312.83
2019-02-24T03:01:43.466Z,103313.35
2019-02-24T03:02:50.446Z,103309.74
2019-02-24T03:03:57.187Z,103310.14
2019-02-24T03:05:03.898Z,103309.13
2019-02-24T03:06:22.212Z,103306.12
2019-02-24T03:07:40.375Z,103305.47
2019-02-24T03:08:51.358Z,103312.72
2019-02-24T03:09:58.456Z,103318.89
2019-02-24T03:11:05.500Z,103319.38
2019-02-24T03:12:12.576Z,103317.33
2019-02-24T03:13:19.962Z,103322.84
2019-02-24T03:14:26.707Z,103317.88
2019-02-24T03:15:34.050Z,103313.64
2019-02-24T03:16:41.029Z,103312.52
2019-02-24T03:17:48.065Z,103316.95
2019-02-24T03:18:55.621Z,103318.85
2019-02-24T03:20:02.344Z,103318.37
2019-02-24T03:21:09.061Z,103322.58
2019-02-24T03:22:17.847Z,103313.89
2019-02-24T03:23:25.089Z,103314.56
2019-02-24T03:24:31.865Z,103317.84
2019-02-24T03:25:38.768Z,103319.72
2019-02-24T03:26:45.515Z,103319.47
2019-02-24T03:27:52.235Z,103319.52
2019-02-24T03:29:04.033Z,103318.59
2019-02-24T03:30:07.834Z,103321.37
2019-02-24T03:31:14.508Z,103317.73
2019-02-24T03:32:21.187Z,103322.64
2019-02-24T03:33:27.908Z,103322.39
2019-02-24T03:34:35.064Z,103319.36
2019-02-24T03:35:41.797Z,103322.75
2019-02-24T03:36:48.475Z,103319.97
2019-02-24T03:37:55.254Z,103316.12
2019-02-24T03:39:01.999Z,103322.46
2019-02-24T03:40:09.190Z,103330.75
2019-02-24T03:41:15.999Z,103327.36
2019-02-24T03:42:22.690Z,103328.14
2019-02-24T03:43:29.859Z,103323.56
2019-02-24T03:44:36.901Z,103324.91
2019-02-24T03:45:43.580Z,103327.89
2019-02-24T03:46:50.234Z,103317.77
2019-02-24T03:47:56.913Z,103319.77
2019-02-24T03:49:03.686Z,103323.48
2019-02-24T03:50:10.602Z,103320.63
2019-02-24T03:51:17.261Z,103323.23
2019-02-24T03:52:24.879Z,103324.58
2019-02-24T03:53:31.583Z,103324.09
2019-02-24T03:54:38.648Z,103321.44
2019-02-24T03:55:45.642Z,103322.70
2019-02-24T03:56:52.348Z,103320.02
2019-02-24T03:57:59.520Z,103321.37
2019-02-24T03:59:14.784Z,103318.88
2019-02-24T04:00:15.299Z,103310.41
2019-02-24T04:01:22.061Z,103312.80
2019-02-24T04:02:29.099Z,103308.36
2019-02-24T04:03:35.796Z,103310.28
2019-02-24T04:04:43.144Z,103311.22
2019-02-24T04:05:50.063Z,103307.42
2019-02-24T04:06:56.767Z,103312.11
2019-02-24T04:08:03.422Z,103305.22
2019-02-24T04:09:12.158Z,103301.34
2019-02-24T04:10:18.875Z,103292.41
2019-02-24T04:11:26.167Z,103291.06
2019-02-24T04:12:33.276Z,103295.72
2019-02-24T04:13:40.308Z,103291.39
2019-02-24T04:14:46.981Z,103285.72
2019-02-24T04:15:54.073Z,103281.76
2019-02-24T04:17:06.134Z,103289.38
2019-02-24T04:18:12.848Z,103286.00
2019-02-24T04:19:19.561Z,103282.66
2019-02-24T04:20:26.506Z,103287.39
2019-02-24T04:21:33.173Z,103291.27
2019-02-24T04:22:39.937Z,103288.97
2019-02-24T04:23:46.656Z,103284.52
2019-02-24T04:24:53.720Z,103290.59
2019-02-24T04:26:01.053Z,103288.22
2019-02-24T04:27:07.967Z,103291.53
2019-02-24T04:28:15.020Z,103288.83
2019-02-24T04:29:24.671Z,103297.84
2019-02-24T04:30:30.521Z,103299.22
2019-02-24T04:31:37.931Z,103298.04
2019-02-24T04:32:44.627Z,103290.19
2019-02-24T04:33:51.314Z,103295.94
2019-02-24T04:34:58.327Z,103289.53
2019-02-24T04:36:05.792Z,103292.02
2019-02-24T04:37:12.469Z,103286.63
2019-02-24T04:38:19.208Z,103287.56
2019-02-24T04:39:25.884Z,103287.38
2019-02-24T04:40:32.571Z,103292.04
2019-02-24T04:41:39.840Z,103292.82
2019-02-24T04:42:46.511Z,103295.98
2019-02-24T04:43:53.202Z,103296.36
2019-02-24T04:44:59.883Z,103294.72
2019-02-24T04:46:06.561Z,103298.19
2019-02-24T04:47:13.250Z,103307.20
2019-02-24T04:48:19.923Z,103299.45
2019-02-24T04:49:26.617Z,103300.72
2019-02-24T04:50:33.333Z,103305.18
2019-02-24T04:51:39.984Z,103302.70
2019-02-24T04:52:47.042Z,103301.50
2019-02-24T04:53:53.724Z,103305.45
2019-02-24T04:55:00.412Z,103299.63
2019-02-24T04:56:07.120Z,103301.56
2019-02-24T04:57:14.124Z,103294.30
2019-02-24T04:58:21.004Z,103296.34
2019-02-24T04:59:35.056Z,103298.39
2019-02-24T05:00:36.847Z,103293.89
2019-02-24T05:01:43.834Z,103293.33
2019-02-24T05:02:50.883Z,103291.61
2019-02-24T05:03:57.580Z,103296.11
2019-02-24T05:05:04.375Z,103298.59
2019-02-24T05:06:11.143Z,103296.83
2019-02-24T05:07:17.807Z,103299.61
2019-02-24T05:08:24.838Z,103300.38
2019-02-24T05:09:31.879Z,103295.73
2019-02-24T05:10:38.616Z,103289.41
2019-02-24T05:11:45.255Z,103279.36
2019-02-24T05:12:52.304Z,103279.48
2019-02-24T05:13:58.952Z,103278.70
2019-02-24T05:15:06.483Z,103275.64
2019-02-24T05:16:13.175Z,103280.55
2019-02-24T05:17:20.299Z,103272.22
2019-02-24T05:18:27.305Z,103273.97
2019-02-24T05:19:33.993Z,103277.44
2019-02-24T05:20:41.191Z,103277.92
2019-02-24T05:21:47.926Z,103284.63
2019-02-24T05:22:54.976Z,103285.03
2019-02-24T05:24:02.795Z,103290.17
2019-02-24T05:25:09.521Z,103294.82
2019-02-24T05:26:16.410Z,103296.16
2019-02-24T05:27:23.083Z,103299.88
2019-02-24T05:28:30.177Z,103293.55
2019-02-24T05:29:45.095Z,103297.52
2019-02-24T05:30:45.938Z,103300.82
2019-02-24T05:31:52.738Z,103303.66
2019-02-24T05:32:59.424Z,103300.72
2019-02-24T05:34:06.106Z,103301.25
2019-02-24T05:35:12.766Z,103300.22
2019-02-24T05:36:19.449Z,103303.86
2019-02-24T05:37:26.183Z,103302.52
2019-02-24T05:38:32.858Z,103303.25
2019-02-24T05:39:39.563Z,103306.47
2019-02-24T05:40:46.712Z,103306.80
2019-02-24T05:41:54.079Z,103315.33
2019-02-24T05:43:01.200Z,103319.53
2019-02-24T05:44:07.957Z,103319.91
2019-02-24T05:45:14.670Z,103324.44
2019-02-24T05:46:21.396Z,103321.94
2019-02-24T05:47:28.046Z,103322.34
2019-02-24T05:48:35.206Z,103329.17
2019-02-24T05:49:42.161Z,103335.14
2019-02-24T05:50:49.222Z,103333.34
2019-02-24T05:51:55.988Z,103335.14
2019-02-24T05:53:02.642Z,103333.03
2019-02-24T05:54:09.685Z,103333.69
2019-02-24T05:55:16.486Z,103335.77
2019-02-24T05:56:23.495Z,103333.33
2019-02-24T05:57:30.175Z,103335.17
2019-02-24T05:58:37.209Z,103337.37
2019-02-24T05:59:44.157Z,103335.70
2019-02-24T06:00:51.230Z,103339.90
2019-02-24T06:01:58.007Z,103340.76
2019-02-24T06:03:04.684Z,103338.10
2019-02-24T06:04:11.504Z,103337.61
2019-02-24T06:05:18.539Z,103330.34
2019-02-24T06:06:25.600Z,103333.66
2019-02-24T06:07:33.357Z,103333.53
2019-02-24T06:08:40.162Z,103331.41
2019-02-24T06:09:46.888Z,103338.50
2019-02-24T06:10:53.953Z,103338.37
2019-02-24T06:12:01.039Z,103339.55
2019-02-24T06:13:07.776Z,103338.86
2019-02-24T06:14:14.501Z,103338.98
2019-02-24T06:15:21.282Z,103344.53
2019-02-24T06:16:28.344Z,103342.66
2019-02-24T06:17:35.793Z,103342.41
2019-02-24T06:19:01.792Z,103341.22
2019-02-24T06:20:08.499Z,103342.27
2019-02-24T06:21:15.518Z,103343.05
2019-02-24T06:22:22.608Z,103342.72
2019-02-24T06:23:29.586Z,103347.32
2019-02-24T06:24:36.241Z,103350.30
2019-02-24T06:25:43.257Z,103342.82
2019-02-24T06:26:49.954Z,103348.91
2019-02-24T06:27:56.606Z,103341.41
2019-02-24T06:29:04.183Z,103340.52
2019-02-24T06:30:11.175Z,103337.67
2019-02-24T06:31:17.886Z,103328.45
2019-02-24T06:32:25.286Z,103333.10
2019-02-24T06:33:31.954Z,103334.30
2019-02-24T06:34:40.428Z,103337.11
2019-02-24T06:35:47.806Z,103340.21
2019-02-24T06:36:54.458Z,103344.69
2019-02-24T06:38:01.479Z,103345.72
2019-02-24T06:39:10.272Z,103347.80
2019-02-24T06:40:17.314Z,103350.00
2019-02-24T06:41:24.049Z,103353.38
2019-02-24T06:42:31.165Z,103344.22
2019-02-24T06:43:37.865Z,103344.70
2019-02-24T06:44:44.889Z,103340.75
2019-02-24T06:45:51.531Z,103337.52
2019-02-24T06:46:58.365Z,103336.57
2019-02-24T06:48:05.410Z,103336.89
2019-02-24T06:49:12.125Z,103342.48
2019-02-24T06:50:19.140Z,103344.23
2019-02-24T06:51:26.555Z,103345.66
2019-02-24T06:52:33.824Z,103347.16
2019-02-24T06:53:40.999Z,103350.08
2019-02-24T06:54:48.006Z,103348.73
2019-02-24T06:55:54.690Z,103348.73
2019-02-24T06:57:01.687Z,103349.83
2019-02-24T06:58:08.727Z,103352.84
2019-02-24T06:59:15.435Z,103355.91
2019-02-24T07:00:22.137Z,103360.65
2019-02-24T07:01:29.512Z,103360.41
2019-02-24T07:02:36.241Z,103361.39
2019-02-24T07:03:43.315Z,103367.44
2019-02-24T07:04:50.347Z,103369.69
2019-02-24T07:05:57.087Z,103364.30
2019-02-24T07:07:03.764Z,103366.73
2019-02-24T07:08:10.816Z,103366.98
2019-02-24T07:09:19.068Z,103360.83
2019-02-24T07:10:27.120Z,103360.59
2019-02-24T07:11:34.316Z,103366.76
2019-02-24T07:12:41.334Z,103367.91
2019-02-24T07:13:48.013Z,103372.81
2019-02-24T07:14:54.701Z,103372.00
2019-02-24T07:16:01.436Z,103368.45
2019-02-24T07:17:08.278Z,103373.59
2019-02-24T07:18:15.395Z,103373.19
2019-02-24T07:19:22.130Z,103371.60
2019-02-24T07:20:28.910Z,103373.56
2019-02-24T07:21:35.939Z,103378.78
2019-02-24T07:22:42.874Z,103381.69
2019-02-24T07:23:49.855Z,103382.38
2019-02-24T07:24:56.938Z,103382.70
2019-02-24T07:26:03.613Z,103380.78
2019-02-24T07:27:10.627Z,103378.78
2019-02-24T07:28:17.731Z,103385.59
2019-02-24T07:29:24.412Z,103385.72
2019-02-24T07:30:31.123Z,103382.08
2019-02-24T07:31:37.828Z,103388.24
2019-02-24T07:32:44.868Z,103390.94
2019-02-24T07:33:51.964Z,103387.13
2019-02-24T07:34:59.508Z,103388.48
2019-02-24T07:36:06.211Z,103395.02
2019-02-24T07:37:13.435Z,103396.11
2019-02-24T07:38:20.090Z,103394.52
2019-02-24T07:39:27.570Z,103400.06
2019-02-24T07:40:34.770Z,103401.69
2019-02-24T07:41:41.759Z,103415.64
2019-02-24T07:42:49.159Z,103414.20
2019-02-24T07:43:56.284Z,103411.69
2019-02-24T07:45:02.960Z,103415.05
2019-02-24T07:46:09.841Z,103415.20
2019-02-24T07:47:16.501Z,103413.86
2019-02-24T07:48:23.243Z,103409.65
2019-02-24T07:49:30.207Z,103416.55
2019-02-24T07:50:38.275Z,103406.00
2019-02-24T07:51:44.957Z,103411.07
2019-02-24T07:52:52.002Z,103410.36
2019-02-24T07:53:59.076Z,103410.11
2019-02-24T07:55:06.520Z,103415.63
2019-02-24T07:56:13.248Z,103412.76
2019-02-24T07:57:19.902Z,103402.36
2019-02-24T07:58:26.946Z,103407.73
2019-02-24T07:59:33.687Z,103410.05
2019-02-24T08:00:40.727Z,103412.80
2019-02-24T08:01:47.755Z,103412.42
2019-02-24T08:02:54.413Z,103415.23
2019-02-24T08:04:01.080Z,103411.56
2019-02-24T08:05:08.287Z,103412.16
2019-02-24T08:06:14.962Z,103410.14
2019-02-24T08:07:21.709Z,103418.31
2019-02-24T08:08:28.426Z,103420.17
2019-02-24T08:09:35.873Z,103420.77
2019-02-24T08:10:43.083Z,103419.71
2019-02-24T08:11:49.743Z,103422.06
2019-02-24T08:12:56.919Z,103419.70
2019-02-24T08:14:03.581Z,103418.16
2019-02-24T08:15:10.306Z,103421.05
2019-02-24T08:16:18.022Z,103424.19
2019-02-24T08:17:24.985Z,103420.38
2019-02-24T08:18:31.638Z,103424.50
2019-02-24T08:19:38.372Z,103414.75
2019-02-24T08:20:45.514Z,103417.77
2019-02-24T08:21:52.780Z,103413.01
2019-02-24T08:22:59.821Z,103409.86
2019-02-24T08:24:06.497Z,103415.28
2019-02-24T08:25:13.202Z,103418.47
2019-02-24T08:26:20.252Z,103420.78
2019-02-24T08:27:26.938Z,103424.38
2019-02-24T08:28:33.975Z,103421.62
2019-02-24T08:29:40.688Z,103418.54
2019-02-24T08:30:47.725Z,103418.73
2019-02-24T08:31:54.378Z,103426.09
2019-02-24T08:33:01.651Z,103413.62
2019-02-24T08:34:08.650Z,103420.61
2019-02-24T08:35:15.317Z,103418.20
2019-02-24T08:36:22.388Z,103420.63
2019-02-24T08:37:29.414Z,103423.37
2019-02-24T08:38:36.517Z,103418.22
2019-02-24T08:39:43.165Z,103420.33
2019-02-24T08:40:50.233Z,103419.06
2019-02-24T08:41:56.902Z,103412.01
2019-02-24T08:43:04.257Z,103415.47
2019-02-24T08:44:11.290Z,103420.27
2019-02-24T08:45:17.991Z,103411.28
2019-02-24T08:46:25.022Z,103414.81
2019-02-24T08:47:31.707Z,103411.38
2019-02-24T08:48:38.771Z,103408.55
2019-02-24T08:49:45.725Z,103404.38
2019-02-24T08:50:52.406Z,103408.38
2019-02-24T08:51:59.208Z,103408.89
2019-02-24T08:53:06.711Z,103404.16
2019-02-24T08:54:13.369Z,103410.78
2019-02-24T08:55:20.399Z,103405.53
2019-02-24T08:56:27.448Z,103404.47
2019-02-24T08:57:34.169Z,103408.56
2019-02-24T08:58:40.914Z,103408.73
2019-02-24T08:59:47.925Z,103411.41
2019-02-24T09:00:54.607Z,103416.91
2019-02-24T09:02:01.262Z,103424.13
2019-02-24T09:03:07.959Z,103420.13
2019-02-24T09:04:14.914Z,103423.37
2019-02-24T09:05:21.610Z,103422.70
2019-02-24T09:06:28.327Z,103421.80
2019-02-24T09:07:34.985Z,103421.82
2019-02-24T09:08:41.987Z,103428.36
2019-02-24T09:09:49.064Z,103426.95
2019-02-24T09:10:56.146Z,103431.32
2019-02-24T09:12:03.197Z,103434.29
2019-02-24T09:13:10.322Z,103433.03
2019-02-24T09:14:17.352Z,103428.88
2019-02-24T09:15:24.386Z,103428.91
2019-02-24T09:16:31.124Z,103428.11
2019-02-24T09:17:37.807Z,103426.05
2019-02-24T09:18:44.847Z,103424.63
2019-02-24T09:19:51.535Z,103427.31
2019-02-24T09:20:58.546Z,103425.84
2019-02-24T09:22:05.199Z,103424.78
2019-02-24T09:23:11.989Z,103424.54
2019-02-24T09:24:18.623Z,103424.85
2019-02-24T09:25:25.609Z,103422.09
2019-02-24T09:26:32.274Z,103412.48
2019-02-24T09:27:39.037Z,103415.09
2019-02-24T09:28:45.773Z,103411.39
2019-02-24T09:29:52.840Z,103407.77
2019-02-24T09:31:01.130Z,103411.92
2019-02-24T09:32:07.954Z,103412.36
2019-02-24T09:33:14.879Z,103410.02
2019-02-24T09:34:22.617Z,103412.68
2019-02-24T09:35:29.827Z,103405.76
2019-02-24T09:36:36.945Z,103406.81
2019-02-24T09:37:43.970Z,103407.02
2019-02-24T09:38:51.028Z,103409.67
2019-02-24T09:39:57.964Z,103409.69
2019-02-24T09:41:04.698Z,103412.15
2019-02-24T09:42:11.763Z,103411.56
2019-02-24T09:43:18.746Z,103413.88
2019-02-24T09:44:25.719Z,103414.59
2019-02-24T09:45:32.434Z,103418.16
2019-02-24T09:46:40.557Z,103413.66
2019-02-24T09:47:47.334Z,103420.23
2019-02-24T09:48:54.025Z,103422.55
2019-02-24T09:50:00.756Z,103426.38
2019-02-24T09:51:07.471Z,103421.94
2019-02-24T09:52:14.466Z,103423.08
2019-02-24T09:53:21.138Z,103424.52
2019-02-24T09:54:27.851Z,103426.70
2019-02-24T09:55:34.541Z,103424.33
2019-02-24T09:56:41.193Z,103427.95
2019-02-24T09:57:47.909Z,103428.13
2019-02-24T09:58:54.925Z,103429.89
2019-02-24T10:00:01.600Z,103433.89
2019-02-24T10:01:10.940Z,103441.36
2019-02-24T10:02:16.898Z,103434.62
2019-02-24T10:03:23.607Z,103436.11
2019-02-24T10:04:30.593Z,103443.95
2019-02-24T10:05:39.049Z,103448.30
2019-02-24T10:06:45.792Z,103444.16
2019-02-24T10:07:53.488Z,103450.80
2019-02-24T10:09:01.819Z,103453.13
2019-02-24T10:10:09.308Z,103451.62
2019-02-24T10:11:16.513Z,103453.02
2019-02-24T10:12:23.515Z,103450.61
2019-02-24T10:13:30.465Z,103461.89
2019-02-24T10:14:37.235Z,103460.37
2019-02-24T10:15:43.898Z,103459.63
2019-02-24T10:16:50.618Z,103462.70
2019-02-24T10:17:57.653Z,103465.37
2019-02-24T10:19:05.452Z,103468.96
2019-02-24T10:20:12.709Z,103469.56
2019-02-24T10:21:20.264Z,103470.09
2019-02-24T10:22:27.265Z,103473.98
2019-02-24T10:23:34.694Z,103478.39
2019-02-24T10:24:41.932Z,103475.50
2019-02-24T10:25:49.227Z,103476.03
2019-02-24T10:26:56.105Z,103476.56
2019-02-24T10:28:03.421Z,103471.56
2019-02-24T10:29:10.388Z,103481.09
2019-02-24T10:30:17.806Z,103476.92
2019-02-24T10:31:25.565Z,103479.55
2019-02-24T10:32:33.251Z,103478.33
2019-02-24T10:33:40.363Z,103480.06
2019-02-24T10:34:47.527Z,103478.48
2019-02-24T10:35:54.695Z,103477.37
2019-02-24T10:37:01.537Z,103481.28
2019-02-24T10:38:08.453Z,103480.37
2019-02-24T10:39:16.243Z,103487.28
2019-02-24T10:40:23.267Z,103486.91
2019-02-24T10:41:29.987Z,103491.19
2019-02-24T10:42:37.194Z,103481.03
2019-02-24T10:43:45.054Z,103488.06
2019-02-24T10:44:51.982Z,103479.12
2019-02-24T10:45:58.764Z,103482.88
2019-02-24T10:47:05.469Z,103484.61
2019-02-24T10:48:14.328Z,103482.66
2019-02-24T10:49:20.539Z,103478.95
2019-02-24T10:50:27.446Z,103479.89
2019-02-24T10:51:34.516Z,103477.85
2019-02-24T10:52:41.979Z,103477.50
2019-02-24T10:53:48.724Z,103474.08
2019-02-24T10:54:55.390Z,103465.16
2019-02-24T10:56:02.106Z,103468.23
2019-02-24T10:57:12.863Z,103463.54
2019-02-24T10:58:17.148Z,103465.72
2019-02-24T10:59:24.502Z,103472.48
2019-02-24T11:00:31.173Z,103466.97
2019-02-24T11:01:37.897Z,103468.33
2019-02-24T11:02:44.694Z,103460.70
2019-02-24T11:03:51.640Z,103469.70
2019-02-24T11:04:58.392Z,103465.90
2019-02-24T11:06:05.070Z,103462.09
2019-02-24T11:07:11.959Z,103463.85
2019-02-24T11:08:18.939Z,103461.82
2019-02-24T11:09:26.362Z,103460.20
2019-02-24T11:10:33.038Z,103463.23
2019-02-24T11:11:40.518Z,103460.29
2019-02-24T11:12:47.312Z,103465.98
2019-02-24T11:13:54.355Z,103468.66
2019-02-24T11:15:01.059Z,103461.42
2019-02-24T11:16:08.045Z,103470.41
2019-02-24T11:17:14.718Z,103463.98
2019-02-24T11:18:21.469Z,103459.72
2019-02-24T11:19:28.514Z,103465.33
2019-02-24T11:20:35.597Z,103459.29
2019-02-24T11:21:42.648Z,103458.06
2019-02-24T11:22:50.216Z,103458.19
2019-02-24T11:23:56.938Z,103453.95
2019-02-24T11:25:03.665Z,103451.42
2019-02-24T11:26:10.372Z,103448.44
2019-02-24T11:27:17.098Z,103453.19
2019-02-24T11:28:24.091Z,103454.93
2019-02-24T11:29:32.400Z,103451.09
2019-02-24T11:30:39.682Z,103448.55
2019-02-24T11:31:47.200Z,103455.03
2019-02-24T11:32:55.117Z,103458.45
2019-02-24T11:34:02.411Z,103456.59
2019-02-24T11:35:09.850Z,103461.75
2019-02-24T11:36:16.879Z,103463.92
2019-02-24T11:37:24.588Z,103459.63
2019-02-24T11:38:31.615Z,103460.94
2019-02-24T11:39:39.141Z,103457.56
2019-02-24T11:40:46.127Z,103457.17
2019-02-24T11:41:53.291Z,103458.89
2019-02-24T11:43:00.534Z,103454.22
2019-02-24T11:44:07.917Z,103459.00
2019-02-24T11:45:14.947Z,103449.59
2019-02-24T11:46:21.963Z,103456.52
2019-02-24T11:47:29.473Z,103452.28
2019-02-24T11:48:36.304Z,103452.34
2019-02-24T11:49:43.313Z,103450.66
2019-02-24T11:50:50.713Z,103445.97
2019-02-24T11:52:03.891Z,103448.95
2019-02-24T11:53:06.778Z,103448.11
2019-02-24T11:54:13.793Z,103444.25
2019-02-24T11:55:20.536Z,103441.66
2019-02-24T11:56:27.583Z,103441.19
2019-02-24T11:57:34.254Z,103450.70
2019-02-24T11:58:41.243Z,103455.03
2019-02-24T11:59:48.625Z,103451.22
2019-02-24T12:00:56.133Z,103461.56
2019-02-24T12:02:02.801Z,103464.14
2019-02-24T12:03:09.466Z,103462.44
2019-02-24T12:04:16.430Z,103456.88
2019-02-24T12:05:23.094Z,103465.92
2019-02-24T12:06:29.829Z,103459.94
2019-02-24T12:07:36.989Z,103458.22
2019-02-24T12:08:44.274Z,103459.97
2019-02-24T12:09:51.901Z,103455.72
2019-02-24T12:10:59.593Z,103459.58
2019-02-24T12:12:07.157Z,103460.45
2019-02-24T12:13:14.814Z,103468.55
2019-02-24T12:14:22.483Z,103465.55
2019-02-24T12:15:29.706Z,103466.87
2019-02-24T12:16:36.715Z,103471.22
2019-02-24T12:17:43.483Z,103469.05
2019-02-24T12:18:50.856Z,103475.55
2019-02-24T12:19:57.709Z,103474.69
2019-02-24T12:21:04.675Z,103474.30
2019-02-24T12:22:11.635Z,103479.45
2019-02-24T12:23:18.918Z,103472.12
2019-02-24T12:24:25.577Z,103470.42
2019-02-24T12:25:32.687Z,103480.34
2019-02-24T12:26:39.689Z,103469.19
2019-02-24T12:27:47.052Z,103462.30
2019-02-24T12:28:54.032Z,103460.58
2019-02-24T12:30:01.256Z,103452.42
2019-02-24T12:31:08.646Z,103448.59
2019-02-24T12:32:15.893Z,103445.61
2019-02-24T12:33:22.785Z,103444.33
2019-02-24T12:34:30.076Z,103443.91
2019-02-24T12:35:37.264Z,103446.94
2019-02-24T12:36:44.616Z,103446.52
2019-02-24T12:37:51.448Z,103453.41
2019-02-24T12:38:59.048Z,103442.23
2019-02-24T12:40:07.057Z,103450.42
2019-02-24T12:41:15.419Z,103448.70
2019-02-24T12:42:22.451Z,103446.53
2019-02-24T12:43:29.162Z,103443.13
2019-02-24T12:44:36.574Z,103444.45
2019-02-24T12:45:43.316Z,103443.56